createdAt,value
2022-12-26T00:01:53.638Z,3.90
2022-12-26T00:04:48.526Z,3.23
2022-12-26T00:07:10.731Z,3.60
2022-12-26T00:09:38.973Z,3.15
2022-12-26T00:12:07.546Z,2.85
2022-12-26T00:14:35.658Z,3.87
2022-12-26T00:17:05.214Z,3.30
2022-12-26T00:19:33.355Z,3.40
2022-12-26T00:22:01.720Z,3.30
2022-12-26T00:24:29.837Z,3.42
2022-12-26T00:26:57.991Z,3.10
2022-12-26T00:29:26.245Z,3.07
2022-12-26T00:31:54.414Z,2.80
2022-12-26T00:34:23.937Z,3.17
2022-12-26T00:36:52.089Z,2.88
2022-12-26T00:39:20.180Z,2.83
2022-12-26T00:41:48.359Z,3.13
2022-12-26T00:44:16.494Z,3.38
2022-12-26T00:46:44.653Z,3.15
2022-12-26T00:49:12.805Z,2.97
2022-12-26T00:51:42.301Z,3.03
2022-12-26T00:54:10.538Z,3.13
2022-12-26T00:56:38.666Z,2.75
2022-12-26T00:59:06.822Z,2.92
2022-12-26T01:01:35.178Z,2.90
2022-12-26T01:04:04.367Z,2.67
2022-12-26T01:06:32.632Z,2.70
2022-12-26T01:09:02.182Z,3.05
2022-12-26T01:11:42.301Z,3.13
2022-12-26T01:14:13.345Z,2.75
2022-12-26T01:16:42.817Z,2.88
2022-12-26T01:19:12.970Z,2.47
2022-12-26T01:21:42.985Z,3.05
2022-12-26T01:24:13.751Z,3.25
2022-12-26T01:26:41.943Z,2.90
2022-12-26T01:29:10.681Z,3.42
2022-12-26T01:31:38.852Z,3.40
2022-12-26T01:34:06.972Z,3.45
2022-12-26T01:36:35.153Z,2.95
2022-12-26T01:39:03.332Z,3.00
2022-12-26T01:41:33.275Z,3.80
2022-12-26T01:44:04.021Z,3.63
2022-12-26T01:46:38.625Z,3.97
2022-12-26T01:49:14.894Z,3.57
2022-12-26T01:51:49.947Z,3.90
2022-12-26T01:54:41.420Z,3.80
2022-12-26T01:57:15.895Z,3.25
2022-12-26T01:59:46.918Z,3.75
2022-12-26T02:02:17.708Z,3.53
2022-12-26T02:05:08.192Z,3.15
2022-12-26T02:07:40.301Z,3.80
2022-12-26T02:10:15.351Z,3.47
2022-12-26T02:12:46.210Z,3.25
2022-12-26T02:15:18.438Z,3.83
2022-12-26T02:17:48.232Z,3.70
2022-12-26T02:20:23.544Z,3.67
2022-12-26T02:23:54.119Z,4.15
2022-12-26T02:27:11.938Z,3.97
2022-12-26T02:30:08.145Z,3.30
2022-12-26T02:33:12.721Z,3.80
2022-12-26T02:36:16.134Z,3.90
2022-12-26T02:39:02.526Z,3.83
2022-12-26T02:42:02.513Z,3.50
2022-12-26T02:45:00.389Z,3.93
2022-12-26T02:47:39.862Z,3.73
2022-12-26T02:50:38.245Z,3.97
2022-12-26T02:53:33.308Z,3.75
2022-12-26T02:56:28.777Z,3.50
2022-12-26T02:59:55.824Z,3.95
2022-12-26T03:02:43.260Z,3.40
2022-12-26T03:05:42.941Z,3.53
2022-12-26T03:08:38.692Z,3.60
2022-12-26T03:11:25.052Z,3.97
2022-12-26T03:14:03.197Z,4.18
2022-12-26T03:16:51.767Z,3.03
2022-12-26T03:19:23.117Z,3.67
2022-12-26T03:21:54.044Z,3.17
2022-12-26T03:24:23.857Z,3.20
2022-12-26T03:26:54.788Z,3.35
2022-12-26T03:29:42.729Z,3.05
2022-12-26T03:32:13.664Z,3.50
2022-12-26T03:34:44.307Z,3.30
2022-12-26T03:37:48.251Z,3.50
2022-12-26T03:41:07.483Z,3.38
2022-12-26T03:44:18.026Z,2.65
2022-12-26T03:47:24.197Z,3.70
2022-12-26T03:50:19.518Z,3.53
2022-12-26T03:53:29.333Z,3.10
2022-12-26T03:56:25.232Z,3.25
2022-12-26T03:59:20.121Z,3.40
2022-12-26T04:02:07.905Z,3.55
2022-12-26T04:05:02.053Z,3.22
2022-12-26T04:07:56.016Z,2.90
2022-12-26T04:10:51.887Z,2.88
2022-12-26T04:13:43.227Z,3.23
2022-12-26T04:16:38.370Z,3.17
2022-12-26T04:19:26.930Z,3.00
2022-12-26T04:22:21.781Z,3.13
2022-12-26T04:25:15.634Z,3.05
2022-12-26T04:28:03.221Z,3.40
2022-12-26T04:30:55.702Z,3.10
2022-12-26T04:33:49.595Z,3.17
2022-12-26T04:36:48.217Z,2.63
2022-12-26T04:39:39.918Z,2.88
2022-12-26T04:42:27.303Z,2.78
2022-12-26T04:44:58.724Z,2.67
2022-12-26T04:47:27.176Z,2.72
2022-12-26T04:50:13.064Z,3.15
2022-12-26T04:52:59.631Z,2.33
2022-12-26T04:55:30.841Z,2.70
2022-12-26T04:57:59.187Z,2.60
2022-12-26T05:00:30.003Z,2.47
2022-12-26T05:03:19.574Z,2.57
2022-12-26T05:06:10.135Z,2.93
2022-12-26T05:09:00.383Z,2.72
2022-12-26T05:11:30.225Z,2.60
2022-12-26T05:14:00.656Z,3.25
2022-12-26T05:16:48.205Z,3.10
2022-12-26T05:19:36.387Z,2.72
2022-12-26T05:22:24.446Z,2.50
2022-12-26T05:25:11.602Z,2.85
2022-12-26T05:28:02.091Z,3.13
2022-12-26T05:30:30.552Z,2.72
2022-12-26T05:33:17.604Z,2.83
2022-12-26T05:35:45.760Z,2.17
2022-12-26T05:38:13.910Z,2.80
2022-12-26T05:40:42.018Z,2.63
2022-12-26T05:43:10.116Z,2.50
2022-12-26T05:45:38.437Z,2.13
2022-12-26T05:48:08.221Z,2.15
2022-12-26T05:50:36.388Z,2.17
2022-12-26T05:53:05.091Z,2.80
2022-12-26T05:55:33.220Z,2.22
2022-12-26T05:58:02.452Z,1.95
2022-12-26T06:00:31.799Z,2.60
2022-12-26T06:03:02.015Z,2.75
2022-12-26T06:05:31.614Z,2.28
2022-12-26T06:07:59.845Z,2.40
2022-12-26T06:10:29.596Z,2.47
2022-12-26T06:12:58.066Z,2.42
2022-12-26T06:15:26.326Z,3.13
2022-12-26T06:17:56.509Z,2.53
2022-12-26T06:20:24.793Z,3.20
2022-12-26T06:22:54.284Z,2.08
2022-12-26T06:25:22.484Z,2.33
2022-12-26T06:27:50.607Z,2.00
2022-12-26T06:30:18.986Z,2.78
2022-12-26T06:32:47.149Z,1.83
2022-12-26T06:35:15.488Z,2.42
2022-12-26T06:37:43.601Z,1.90
2022-12-26T06:40:13.542Z,2.22
2022-12-26T06:42:41.661Z,2.30
2022-12-26T06:45:11.529Z,2.83
2022-12-26T06:47:39.653Z,2.45
2022-12-26T06:50:08.797Z,2.00
2022-12-26T06:52:36.964Z,2.13
2022-12-26T06:55:05.982Z,2.47
2022-12-26T06:57:35.399Z,2.60
2022-12-26T07:00:04.782Z,2.50
2022-12-26T07:02:33.024Z,2.22
2022-12-26T07:05:01.162Z,2.10
2022-12-26T07:07:29.368Z,2.72
2022-12-26T07:09:58.207Z,2.53
2022-12-26T07:12:26.513Z,2.00
2022-12-26T07:15:01.375Z,2.10
2022-12-26T07:17:30.185Z,2.60
2022-12-26T07:19:58.256Z,2.53
2022-12-26T07:22:26.509Z,2.60
2022-12-26T07:24:54.621Z,2.05
2022-12-26T07:27:22.909Z,2.60
2022-12-26T07:29:50.996Z,2.47
2022-12-26T07:32:20.628Z,2.60
2022-12-26T07:34:48.731Z,2.50
2022-12-26T07:37:16.827Z,2.30
2022-12-26T07:39:44.927Z,3.38
2022-12-26T07:42:13.027Z,2.50
2022-12-26T07:44:41.987Z,2.67
2022-12-26T07:47:10.066Z,2.30
2022-12-26T07:49:39.555Z,3.08
2022-12-26T07:52:07.739Z,2.88
2022-12-26T07:54:35.913Z,3.78
2022-12-26T07:57:38.076Z,2.53
2022-12-26T07:59:53.803Z,2.40
2022-12-26T08:02:23.982Z,2.40
2022-12-26T08:04:54.064Z,2.60
2022-12-26T08:07:22.428Z,2.92
2022-12-26T08:09:50.667Z,2.67
2022-12-26T08:12:21.604Z,2.85
2022-12-26T08:14:50.280Z,2.60
2022-12-26T08:17:18.731Z,2.30
2022-12-26T08:19:46.948Z,2.40
2022-12-26T08:22:16.465Z,2.28
2022-12-26T08:24:44.734Z,1.98
2022-12-26T08:27:13.024Z,2.20
2022-12-26T08:29:41.168Z,2.33
2022-12-26T08:32:09.338Z,2.03
2022-12-26T08:34:38.128Z,1.98
2022-12-26T08:37:06.317Z,2.65
2022-12-26T08:39:35.923Z,2.42
2022-12-26T08:42:04.233Z,2.42
2022-12-26T08:44:32.352Z,2.47
2022-12-26T08:47:00.481Z,1.90
2022-12-26T08:49:28.675Z,2.20
2022-12-26T08:51:56.879Z,2.65
2022-12-26T08:54:25.213Z,2.05
2022-12-26T08:56:57.094Z,2.03
2022-12-26T08:59:25.238Z,2.15
2022-12-26T09:01:53.603Z,2.78
2022-12-26T09:04:21.845Z,3.88
2022-12-26T09:06:50.096Z,3.55
2022-12-26T09:09:19.241Z,3.17
2022-12-26T09:11:47.513Z,3.15
2022-12-26T09:14:17.022Z,4.10
2022-12-26T09:16:50.878Z,4.00
2022-12-26T09:19:21.360Z,4.20
2022-12-26T09:22:12.019Z,3.55
2022-12-26T09:24:40.224Z,3.25
2022-12-26T09:27:08.994Z,2.30
2022-12-26T09:29:39.565Z,2.78
2022-12-26T09:32:07.957Z,2.58
2022-12-26T09:34:36.204Z,3.03
2022-12-26T09:37:04.545Z,2.95
2022-12-26T09:39:32.983Z,3.92
2022-12-26T09:42:16.302Z,3.50
2022-12-26T09:44:58.353Z,3.60
2022-12-26T09:47:34.127Z,3.85
2022-12-26T09:50:13.229Z,4.15
2022-12-26T09:52:49.443Z,3.53
2022-12-26T09:55:32.933Z,3.17
2022-12-26T09:58:09.440Z,3.58
2022-12-26T10:00:52.219Z,2.70
2022-12-26T10:03:21.012Z,2.95
2022-12-26T10:06:11.024Z,3.35
2022-12-26T10:09:01.840Z,3.42
2022-12-26T10:11:50.877Z,3.10
2022-12-26T10:14:41.640Z,3.40
2022-12-26T10:17:24.453Z,3.17
2022-12-26T10:20:17.162Z,4.18
2022-12-26T10:23:33.474Z,4.57
2022-12-26T10:26:12.089Z,6.70
2022-12-26T10:28:47.121Z,4.47
2022-12-26T10:31:25.626Z,3.70
2022-12-26T10:34:04.469Z,3.45
2022-12-26T10:36:38.558Z,4.53
2022-12-26T10:39:18.002Z,3.95
2022-12-26T10:41:51.446Z,10.15
2022-12-26T10:44:27.203Z,8.18
2022-12-26T10:47:22.356Z,5.85
2022-12-26T10:49:52.313Z,3.72
2022-12-26T10:52:27.733Z,4.72
2022-12-26T10:55:28.857Z,6.13
2022-12-26T10:57:52.235Z,6.35
2022-12-26T11:00:24.270Z,4.25
2022-12-26T11:03:08.415Z,5.15
2022-12-26T11:08:42.985Z,4.78
2022-12-26T11:11:21.129Z,5.60
2022-12-26T11:14:01.360Z,5.70
2022-12-26T11:16:36.364Z,6.75
2022-12-26T11:19:05.388Z,6.65
2022-12-26T11:21:35.612Z,5.63
2022-12-26T11:24:20.390Z,5.28
2022-12-26T11:26:48.876Z,5.35
2022-12-26T11:29:20.602Z,5.60
2022-12-26T11:31:55.780Z,5.72
2022-12-26T11:34:32.545Z,5.22
2022-12-26T11:37:02.980Z,5.70
2022-12-26T11:39:37.144Z,5.10
2022-12-26T11:42:11.979Z,5.13
2022-12-26T11:44:45.407Z,4.72
2022-12-26T11:47:17.055Z,4.38
2022-12-26T11:49:59.764Z,4.05
2022-12-26T11:52:43.676Z,4.45
2022-12-26T11:55:33.489Z,6.43
2022-12-26T11:58:18.421Z,5.95
2022-12-26T12:01:08.366Z,5.13
2022-12-26T12:03:46.917Z,7.57
2022-12-26T12:06:58.565Z,6.10
2022-12-26T12:09:38.659Z,4.85
2022-12-26T12:12:17.764Z,6.32
2022-12-26T12:15:02.751Z,4.80
2022-12-26T12:17:40.294Z,3.85
2022-12-26T12:20:34.173Z,3.95
2022-12-26T12:23:33.728Z,4.63
2022-12-26T12:26:12.143Z,4.00
2022-12-26T12:29:21.688Z,3.97
2022-12-26T12:32:08.618Z,5.40
2022-12-26T12:35:01.131Z,3.92
2022-12-26T12:37:50.863Z,3.90
2022-12-26T12:40:35.932Z,5.88
2022-12-26T12:43:17.912Z,5.03
2022-12-26T12:45:58.861Z,3.15
2022-12-26T12:48:49.955Z,3.80
2022-12-26T12:51:31.661Z,4.50
2022-12-26T12:54:41.235Z,3.10
2022-12-26T12:57:21.685Z,2.80
2022-12-26T13:00:11.899Z,2.38
2022-12-26T13:02:47.478Z,2.40
2022-12-26T13:05:43.379Z,2.50
2022-12-26T13:08:21.330Z,2.33
2022-12-26T13:10:55.618Z,2.85
2022-12-26T13:13:29.411Z,3.30
2022-12-26T13:16:08.223Z,2.70
2022-12-26T13:18:43.373Z,2.47
2022-12-26T13:21:14.689Z,2.03
2022-12-26T13:24:06.777Z,2.08
2022-12-26T13:26:39.539Z,2.78
2022-12-26T13:29:14.282Z,1.90
2022-12-26T13:31:45.593Z,2.35
2022-12-26T13:34:18.477Z,2.13
2022-12-26T13:36:51.007Z,3.67
2022-12-26T13:39:39.449Z,2.60
2022-12-26T13:42:50.854Z,2.92
2022-12-26T13:45:52.704Z,3.42
2022-12-26T13:49:04.491Z,2.60
2022-12-26T13:52:25.451Z,2.30
2022-12-26T13:55:46.576Z,2.88
2022-12-26T13:58:36.237Z,2.97
2022-12-26T14:01:27.330Z,3.35
2022-12-26T14:04:19.930Z,1.90
2022-12-26T14:07:21.655Z,1.58
2022-12-26T14:10:04.210Z,1.50
2022-12-26T14:13:04.285Z,1.30
2022-12-26T14:15:52.814Z,1.40
2022-12-26T14:18:45.043Z,1.52
2022-12-26T14:21:46.526Z,1.00
2022-12-26T14:24:33.310Z,1.00
2022-12-26T14:27:34.353Z,1.95
2022-12-26T14:30:21.794Z,2.95
2022-12-26T14:33:22.767Z,5.50
2022-12-26T14:36:08.033Z,3.20
2022-12-26T14:38:51.157Z,1.58
2022-12-26T14:41:38.934Z,1.25
2022-12-26T14:44:44.280Z,1.20
2022-12-26T14:47:13.125Z,1.00
2022-12-26T14:49:43.788Z,1.88
2022-12-26T14:52:49.784Z,2.05
2022-12-26T14:55:59.568Z,2.10
2022-12-26T14:58:44.870Z,1.88
2022-12-26T15:01:49.310Z,2.50
2022-12-26T15:04:52.404Z,2.85
2022-12-26T15:08:09.673Z,2.88
2022-12-26T15:11:25.578Z,2.03
2022-12-26T15:14:50.053Z,1.85
2022-12-26T15:17:30.804Z,2.58
2022-12-26T15:20:48.326Z,2.53
2022-12-26T15:23:53.197Z,2.15
2022-12-26T15:27:19.669Z,2.35
2022-12-26T15:30:18.469Z,3.90
2022-12-26T15:33:00.031Z,2.58
2022-12-26T15:35:35.899Z,2.30
2022-12-26T15:38:33.476Z,2.22
2022-12-26T15:41:15.070Z,2.10
2022-12-26T15:44:13.665Z,2.70
2022-12-26T15:46:48.600Z,3.10
2022-12-26T15:49:46.155Z,2.17
2022-12-26T15:52:31.025Z,2.15
2022-12-26T15:55:38.716Z,2.70
2022-12-26T15:58:27.464Z,2.92
2022-12-26T16:00:57.910Z,2.60
2022-12-26T16:03:37.584Z,2.90
2022-12-26T16:06:45.990Z,3.03
2022-12-26T16:09:31.688Z,2.10
2022-12-26T16:12:02.074Z,2.30
2022-12-26T16:14:33.973Z,3.42
2022-12-26T16:17:21.884Z,3.83
2022-12-26T16:19:52.812Z,2.60
2022-12-26T16:22:49.457Z,2.13
2022-12-26T16:25:22.442Z,1.90
2022-12-26T16:27:55.219Z,2.88
2022-12-26T16:30:27.428Z,2.63
2022-12-26T16:32:57.516Z,2.63
2022-12-26T16:35:32.710Z,1.73
2022-12-26T16:38:03.663Z,1.75
2022-12-26T16:40:34.549Z,2.70
2022-12-26T16:43:05.759Z,3.25
2022-12-26T16:45:39.251Z,4.72
2022-12-26T16:48:12.084Z,3.50
2022-12-26T16:50:49.936Z,3.17
2022-12-26T16:53:21.233Z,2.40
2022-12-26T16:55:52.973Z,1.90
2022-12-26T16:58:28.553Z,4.35
2022-12-26T17:01:08.006Z,3.08
2022-12-26T17:03:48.714Z,1.70
2022-12-26T17:06:23.132Z,1.73
2022-12-26T17:08:53.423Z,1.70
2022-12-26T17:11:31.296Z,2.17
2022-12-26T17:14:01.273Z,2.00
2022-12-26T17:16:33.051Z,1.92
2022-12-26T17:19:18.590Z,2.08
2022-12-26T17:22:20.869Z,1.60
2022-12-26T17:24:50.346Z,2.33
2022-12-26T17:27:23.228Z,1.92
2022-12-26T17:29:57.972Z,2.47
2022-12-26T17:32:36.307Z,1.95
2022-12-26T17:35:15.743Z,3.30
2022-12-26T17:37:45.177Z,1.73
2022-12-26T17:40:29.476Z,1.90
2022-12-26T17:43:07.882Z,1.73
2022-12-26T17:45:40.046Z,1.50
2022-12-26T17:48:12.835Z,1.55
2022-12-26T17:50:45.327Z,1.52
2022-12-26T17:53:29.512Z,2.10
2022-12-26T17:56:01.653Z,1.40
2022-12-26T17:58:30.548Z,1.55
2022-12-26T18:00:59.154Z,1.67
2022-12-26T18:03:27.943Z,2.00
2022-12-26T18:05:57.600Z,2.15
2022-12-26T18:08:31.886Z,2.55
2022-12-26T18:11:01.178Z,2.10
2022-12-26T18:13:29.707Z,1.48
2022-12-26T18:15:59.318Z,1.90
2022-12-26T18:18:34.464Z,1.77
2022-12-26T18:21:09.620Z,1.98
2022-12-26T18:23:38.948Z,2.00
2022-12-26T18:26:12.399Z,2.13
2022-12-26T18:28:41.401Z,2.65
2022-12-26T18:31:15.168Z,2.15
2022-12-26T18:33:43.286Z,1.70
2022-12-26T18:36:15.258Z,2.22
2022-12-26T18:38:44.370Z,2.70
2022-12-26T18:41:16.071Z,2.30
2022-12-26T18:43:44.279Z,2.80
2022-12-26T18:46:17.714Z,2.92
2022-12-26T18:48:46.648Z,2.55
2022-12-26T18:51:16.329Z,2.58
2022-12-26T18:53:44.495Z,2.15
2022-12-26T18:56:18.351Z,2.95
2022-12-26T18:58:47.332Z,2.30
2022-12-26T19:01:20.395Z,2.10
2022-12-26T19:03:48.961Z,2.40
2022-12-26T19:06:24.601Z,2.50
2022-12-26T19:08:52.927Z,2.58
2022-12-26T19:11:21.557Z,2.45
2022-12-26T19:13:49.782Z,2.88
2022-12-26T19:16:18.088Z,3.28
2022-12-26T19:18:46.348Z,3.58
2022-12-26T19:21:16.305Z,4.07
2022-12-26T19:23:47.736Z,5.20
2022-12-26T19:26:19.778Z,4.43
2022-12-26T19:28:54.291Z,2.67
2022-12-26T19:31:24.306Z,0.55
2022-12-26T19:33:52.490Z,0.43
2022-12-26T19:36:20.588Z,0.25
2022-12-26T19:38:50.086Z,0.43
2022-12-26T19:41:18.333Z,0.65
2022-12-26T19:43:46.461Z,0.47
2022-12-26T19:46:16.660Z,0.85
2022-12-26T19:48:45.578Z,0.40
2022-12-26T19:51:16.321Z,0.40
2022-12-26T19:53:46.122Z,1.02
2022-12-26T19:56:18.712Z,0.40
2022-12-26T19:58:53.216Z,0.43
2022-12-26T20:01:27.451Z,0.40
2022-12-26T20:03:57.324Z,0.60
2022-12-26T20:06:30.139Z,0.60
2022-12-26T20:09:01.633Z,2.70
2022-12-26T20:11:33.717Z,1.38
2022-12-26T20:14:03.191Z,2.15
2022-12-26T20:17:04.393Z,1.45
2022-12-26T20:19:20.051Z,0.98
2022-12-26T20:21:48.996Z,1.40
2022-12-26T20:24:18.603Z,0.80
2022-12-26T20:26:48.732Z,1.17
2022-12-26T20:29:17.752Z,0.80
2022-12-26T20:31:46.408Z,1.40
2022-12-26T20:34:14.950Z,1.10
2022-12-26T20:36:43.423Z,1.02
2022-12-26T20:39:15.899Z,0.80
2022-12-26T20:41:44.927Z,0.95
2022-12-26T20:44:16.420Z,0.73
2022-12-26T20:46:46.575Z,0.82
2022-12-26T20:49:14.811Z,1.00
2022-12-26T20:51:45.100Z,1.00
2022-12-26T20:54:15.762Z,0.70
2022-12-26T20:56:44.320Z,0.85
2022-12-26T20:59:14.134Z,0.80
2022-12-26T21:01:42.854Z,0.52
2022-12-26T21:04:18.207Z,1.15
2022-12-26T21:06:47.418Z,1.00
2022-12-26T21:09:15.807Z,1.15
2022-12-26T21:11:45.433Z,0.93
2022-12-26T21:14:17.871Z,1.17
2022-12-26T21:16:49.259Z,1.00
2022-12-26T21:19:18.747Z,1.05
2022-12-26T21:21:50.181Z,1.40
2022-12-26T21:24:21.761Z,1.20
2022-12-26T21:26:50.625Z,1.80
2022-12-26T21:29:24.667Z,1.23
2022-12-26T21:31:53.560Z,0.70
2022-12-26T21:34:25.797Z,0.70
2022-12-26T21:37:11.945Z,1.08
2022-12-26T21:39:41.138Z,0.80
2022-12-26T21:42:10.436Z,1.05
2022-12-26T21:44:40.138Z,0.80
2022-12-26T21:47:08.757Z,0.88
2022-12-26T21:49:37.295Z,0.50
2022-12-26T21:52:06.488Z,0.80
2022-12-26T21:54:52.479Z,0.70
2022-12-26T21:57:21.599Z,0.57
2022-12-26T21:59:57.132Z,0.63
2022-12-26T22:02:45.521Z,0.60
2022-12-26T22:05:14.119Z,0.52
2022-12-26T22:07:42.461Z,0.70
2022-12-26T22:10:32.376Z,0.60
2022-12-26T22:13:00.144Z,0.70
2022-12-26T22:15:47.179Z,0.38
2022-12-26T22:18:15.450Z,0.70
2022-12-26T22:20:44.891Z,0.77
2022-12-26T22:23:14.030Z,0.47
2022-12-26T22:25:42.209Z,0.50
2022-12-26T22:28:10.814Z,0.60
2022-12-26T22:30:47.479Z,0.52
2022-12-26T22:33:15.730Z,0.87
2022-12-26T22:35:43.954Z,0.40
2022-12-26T22:38:12.355Z,0.50
2022-12-26T22:40:40.493Z,0.57
2022-12-26T22:43:08.951Z,0.40
2022-12-26T22:45:42.493Z,0.50
2022-12-26T22:48:10.619Z,0.40
2022-12-26T22:50:38.822Z,0.47
2022-12-26T22:53:06.994Z,0.80
2022-12-26T22:55:35.128Z,0.40
2022-12-26T22:58:03.303Z,0.80
2022-12-26T23:00:31.435Z,0.50
2022-12-26T23:03:01.073Z,0.80
2022-12-26T23:05:30.193Z,0.70
2022-12-26T23:07:59.079Z,0.95
2022-12-26T23:10:27.977Z,0.67
2022-12-26T23:12:57.045Z,0.40
2022-12-26T23:15:28.680Z,0.40
2022-12-26T23:18:34.423Z,0.60
2022-12-26T23:21:38.969Z,0.50
2022-12-26T23:24:08.681Z,0.60
2022-12-26T23:26:37.188Z,0.50
2022-12-26T23:29:23.377Z,0.30
2022-12-26T23:31:51.600Z,0.38
2022-12-26T23:34:21.311Z,0.47
2022-12-26T23:36:49.441Z,0.35
2022-12-26T23:39:17.878Z,0.43
2022-12-26T23:41:46.067Z,0.50
2022-12-26T23:44:14.335Z,0.40
2022-12-26T23:46:44.430Z,0.40
2022-12-26T23:49:16.872Z,0.43
2022-12-26T23:51:46.400Z,0.30
2022-12-26T23:54:14.549Z,0.30
2022-12-26T23:56:42.658Z,0.30
2022-12-26T23:59:10.820Z,0.30
